GCRR

Lanzarote Airport

Lanzarote Island, Spain
METAR GCRR 140230Z AUTO 02010KT 9999 SCT033/// 18/14 Q1025
Observed Flight Rules
Dec-14 @ 02:30 UTC (36 minutes ago) Visual Flight Rules
Wind Visibility Clouds
20° at 10 knots 10,000+ meters
  • Scattered at 3,300' AGL
Temperatures Readings
Current 18°C / 64°F
Dewpoint 14°C / 57°F
Humidity 78%
Altimeter 30.27" Hg
Pressure 1025 hPa
Elevation 40
METAR GCRR 140230Z AUTO 02010KT 9999 SCT033/// 18/14 Q1025
Observed Flight Rules
Dec-14 @ 02:30 UTC
(36 minutes ago)
VFR
Wind Visibility
20° at 10 knots 10,000+ meters
Clouds
  • Scattered at 3,300' AGL
Temperature Dewpoint
18°C / 64°F 14°C / 57°F
Humidity Altimeter Pressure
78% 30.27" Hg 1025 hPa